createdAt,value
2022-08-05T00:00:10.040Z,1000.6
2022-08-05T00:01:20.428Z,1000.5
2022-08-05T00:02:12.079Z,1000.5
2022-08-05T00:03:15.440Z,1000.5
2022-08-05T00:04:13.900Z,1000.6
2022-08-05T00:05:27.413Z,1000.5
2022-08-05T00:06:22.301Z,1000.5
2022-08-05T00:07:21.909Z,1000.6
2022-08-05T00:08:19.911Z,1000.5
2022-08-05T00:09:19.408Z,1000.5
2022-08-05T00:10:19.900Z,1000.5
2022-08-05T00:11:23.979Z,1000.5
2022-08-05T00:12:21.919Z,1000.5
2022-08-05T00:13:31.320Z,1000.5
2022-08-05T00:14:27.522Z,1000.5
2022-08-05T00:15:56.554Z,1000.4
2022-08-05T00:16:35.833Z,1000.4
2022-08-05T00:17:26.900Z,1000.4
2022-08-05T00:18:28.041Z,1000.4
2022-08-05T00:19:33.067Z,1000.4
2022-08-05T00:20:29.960Z,1000.4
2022-08-05T00:21:30.919Z,1000.4
2022-08-05T00:22:31.900Z,1000.4
2022-08-05T00:23:44.911Z,1000.4
2022-08-05T00:24:33.919Z,1000.4
2022-08-05T00:25:45.427Z,1000.4
2022-08-05T00:26:35.939Z,1000.4
2022-08-05T00:27:36.880Z,1000.4
2022-08-05T00:28:38.000Z,1000.4
2022-08-05T00:29:38.927Z,1000.4
2022-08-05T00:30:41.051Z,1000.4
2022-08-05T00:31:41.725Z,1000.3
2022-08-05T00:32:41.929Z,1000.3
2022-08-05T00:34:43.298Z,1000.3
2022-08-05T00:34:57.178Z,1000.3
2022-08-05T00:35:47.864Z,1000.3
2022-08-05T00:37:09.304Z,1000.3
2022-08-05T00:37:51.526Z,1000.3
2022-08-05T00:38:47.961Z,1000.3
2022-08-05T00:39:57.643Z,1000.3
2022-08-05T00:40:51.880Z,1000.3
2022-08-05T00:41:52.286Z,1000.3
2022-08-05T00:42:51.939Z,1000.3
2022-08-05T00:43:52.941Z,1000.2
2022-08-05T00:44:53.982Z,1000.2
2022-08-05T00:45:54.960Z,1000.3
2022-08-05T00:47:01.749Z,1000.2
2022-08-05T00:48:05.117Z,1000.2
2022-08-05T00:48:57.979Z,1000.2
2022-08-05T00:49:58.939Z,1000.2
2022-08-05T00:50:59.963Z,1000.3
2022-08-05T00:52:01.021Z,1000.3
2022-08-05T00:53:02.939Z,1000.2
2022-08-05T00:54:04.043Z,1000.2
2022-08-05T00:55:04.999Z,1000.2
2022-08-05T00:56:07.799Z,1000.2
2022-08-05T00:57:07.020Z,1000.2
2022-08-05T00:58:07.899Z,999.9
2022-08-05T00:59:08.969Z,1000.2
2022-08-05T01:00:11.096Z,1000.2
2022-08-05T01:03:09.896Z,1000.2
2022-08-05T01:04:13.629Z,1000.2
2022-08-05T01:05:12.063Z,1000.2
2022-08-05T01:06:14.283Z,1000.1
2022-08-05T01:07:13.986Z,1000.1
2022-08-05T01:08:29.963Z,1000.1
2022-08-05T01:09:17.220Z,1000.1
2022-08-05T01:10:16.977Z,1000.1
2022-08-05T01:11:22.013Z,1000.1
2022-08-05T01:12:19.198Z,1000.1
2022-08-05T01:13:21.328Z,1000.1
2022-08-05T01:14:27.164Z,1000.1
2022-08-05T01:15:35.922Z,1000.1
2022-08-05T01:16:26.372Z,999.8
2022-08-05T01:17:24.334Z,1000
2022-08-05T01:18:24.934Z,1000.1
2022-08-05T01:19:30.316Z,1000
2022-08-05T01:20:27.273Z,1000
2022-08-05T01:21:37.933Z,1000
2022-08-05T01:22:31.794Z,1000
2022-08-05T01:23:34.677Z,1000
2022-08-05T01:24:34.955Z,1000
2022-08-05T01:25:39.563Z,1000
2022-08-05T01:26:36.955Z,999.9
2022-08-05T01:27:50.585Z,999.9
2022-08-05T01:28:39.247Z,999.9
2022-08-05T01:29:39.998Z,999.9
2022-08-05T01:30:40.954Z,999.9
2022-08-05T01:31:42.488Z,999.9
2022-08-05T01:32:42.936Z,999.9
2022-08-05T01:33:49.057Z,999.9
2022-08-05T01:34:45.015Z,999.9
2022-08-05T01:35:50.367Z,999.9
2022-08-05T01:36:47.620Z,999.9
2022-08-05T01:37:47.954Z,999.9
2022-08-05T01:38:49.709Z,999.9
2022-08-05T01:39:50.019Z,999.9
2022-08-05T01:40:50.975Z,999.9
2022-08-05T01:41:51.955Z,999.9
2022-08-05T01:42:52.975Z,999.9
2022-08-05T01:43:54.014Z,999.9
2022-08-05T01:44:55.004Z,999.9
2022-08-05T01:45:56.358Z,999.9
2022-08-05T01:46:56.923Z,999.8
2022-08-05T01:47:57.975Z,999.4
2022-08-05T01:48:58.994Z,999.8
2022-08-05T01:50:02.379Z,999.8
2022-08-05T01:51:08.682Z,999.9
2022-08-05T01:52:01.944Z,999.9
2022-08-05T01:53:02.949Z,999.8
2022-08-05T01:54:03.944Z,999.8
2022-08-05T01:55:05.568Z,999.8
2022-08-05T01:56:05.915Z,999.8
2022-08-05T01:58:08.517Z,999.8
2022-08-05T01:58:30.084Z,999.8
2022-08-05T01:59:08.976Z,999.8
2022-08-05T02:00:11.793Z,999.8
2022-08-05T02:01:12.237Z,999.7
2022-08-05T02:02:14.056Z,999.8
2022-08-05T02:03:16.269Z,999.8
2022-08-05T02:04:15.947Z,999.8
2022-08-05T02:05:17.455Z,999.8
2022-08-05T02:06:24.182Z,999.8
2022-08-05T02:07:21.780Z,999.8
2022-08-05T02:08:31.005Z,999.8
2022-08-05T02:09:21.954Z,999.8
2022-08-05T02:10:26.768Z,999.8
2022-08-05T02:11:24.127Z,999.7
2022-08-05T02:12:25.232Z,999.7
2022-08-05T02:13:25.994Z,999.7
2022-08-05T02:14:27.015Z,999.7
2022-08-05T02:15:33.191Z,999.7
2022-08-05T02:16:28.924Z,999.7
2022-08-05T02:18:28.872Z,999.7
2022-08-05T02:18:34.741Z,999.7
2022-08-05T02:19:33.467Z,999.7
2022-08-05T02:20:33.014Z,999.6
2022-08-05T02:21:37.965Z,999.3
2022-08-05T02:22:34.959Z,999.6
2022-08-05T02:23:35.994Z,999.6
2022-08-05T02:24:36.974Z,999.7
2022-08-05T02:25:49.666Z,999.7
2022-08-05T02:26:39.004Z,999.7
2022-08-05T02:27:57.839Z,999.6
2022-08-05T02:28:41.620Z,999.7
2022-08-05T02:29:58.309Z,999.7
2022-08-05T02:30:51.592Z,999.7
2022-08-05T02:31:44.054Z,999
2022-08-05T02:32:44.953Z,999.4
2022-08-05T02:33:46.054Z,999.6
2022-08-05T02:34:51.743Z,999.6
2022-08-05T02:35:51.073Z,999.6
2022-08-05T02:36:49.076Z,999.6
2022-08-05T02:37:52.663Z,999.6
2022-08-05T02:38:53.051Z,999.5
2022-08-05T02:39:52.237Z,999.5
2022-08-05T02:40:53.074Z,999.5
2022-08-05T02:41:58.320Z,999.5
2022-08-05T02:42:55.993Z,999.5
2022-08-05T02:44:02.079Z,999.5
2022-08-05T02:44:57.975Z,999.6
2022-08-05T02:45:59.074Z,999.6
2022-08-05T02:47:01.310Z,999.5
2022-08-05T02:48:07.753Z,999.6
2022-08-05T02:49:02.994Z,999.5
2022-08-05T02:50:04.016Z,999.5
2022-08-05T02:51:04.934Z,999.5
2022-08-05T02:52:05.975Z,999.5
2022-08-05T02:53:07.014Z,999.5
2022-08-05T02:54:07.957Z,999.5
2022-08-05T02:55:10.769Z,999.5
2022-08-05T02:56:11.057Z,999.5
2022-08-05T02:58:09.100Z,999.5
2022-08-05T02:58:14.061Z,999.5
2022-08-05T02:59:14.997Z,999.5
2022-08-05T03:00:16.056Z,999.5
2022-08-05T03:01:17.100Z,999.4
2022-08-05T03:02:19.095Z,999.5
2022-08-05T03:03:20.073Z,999.5
2022-08-05T03:04:23.074Z,999.5
2022-08-05T03:06:53.265Z,999.5
2022-08-05T03:06:53.375Z,999.4
2022-08-05T03:07:40.810Z,999.5
2022-08-05T03:08:29.975Z,999.4
2022-08-05T03:09:36.664Z,999.4
2022-08-05T03:10:30.997Z,999.4
2022-08-05T03:11:54.197Z,999.4
2022-08-05T03:12:33.055Z,999.4
2022-08-05T03:13:51.398Z,999.4
2022-08-05T03:14:35.014Z,999.4
2022-08-05T03:15:36.115Z,999.4
2022-08-05T03:16:37.018Z,999.4
2022-08-05T03:17:40.053Z,999.4
2022-08-05T03:18:39.034Z,999.4
2022-08-05T03:19:41.774Z,999.4
2022-08-05T03:20:44.661Z,999.3
2022-08-05T03:21:48.578Z,999.4
2022-08-05T03:22:44.396Z,999.4
2022-08-05T03:23:44.014Z,999.4
2022-08-05T03:24:46.898Z,999.4
2022-08-05T03:26:04.220Z,999.4
2022-08-05T03:26:49.346Z,999.4
2022-08-05T03:27:59.707Z,999.3
2022-08-05T03:28:49.994Z,999.3
2022-08-05T03:30:08.033Z,999.3
2022-08-05T03:31:01.915Z,999.3
2022-08-05T03:32:03.073Z,999.3
2022-08-05T03:33:04.014Z,999.3
2022-08-05T03:34:05.074Z,999.3
2022-08-05T03:35:06.033Z,999.3
2022-08-05T03:36:06.997Z,999.3
2022-08-05T03:37:08.037Z,999.3
2022-08-05T03:38:09.015Z,999.3
2022-08-05T03:39:12.891Z,999.3
2022-08-05T03:40:11.943Z,999.3
2022-08-05T03:41:12.276Z,999.3
2022-08-05T03:42:14.054Z,999.3
2022-08-05T03:43:16.193Z,999.3
2022-08-05T03:44:19.762Z,999.3
2022-08-05T03:45:22.282Z,999.2
2022-08-05T03:46:18.074Z,999.3
2022-08-05T03:47:19.093Z,999.2
2022-08-05T03:48:21.975Z,999.3
2022-08-05T03:49:21.015Z,999.3
2022-08-05T03:50:21.974Z,999.3
2022-08-05T03:52:35.782Z,999.3
2022-08-05T03:52:36.241Z,999.3
2022-08-05T03:55:00.645Z,999.3
2022-08-05T03:55:34.784Z,999.3
2022-08-05T03:55:54.604Z,999.3
2022-08-05T03:56:31.824Z,999.3
2022-08-05T03:57:35.161Z,999.3
2022-08-05T03:58:30.073Z,999.4
2022-08-05T03:59:47.455Z,999.3
2022-08-05T04:00:32.139Z,999.3
2022-08-05T04:01:34.132Z,999.3
2022-08-05T04:02:38.105Z,999.2
2022-08-05T04:03:36.055Z,999.3
2022-08-05T04:04:37.035Z,999.3
2022-08-05T04:05:38.504Z,999.3
2022-08-05T04:06:47.682Z,999.3
2022-08-05T04:07:51.506Z,999.3
2022-08-05T04:08:41.056Z,999.2
2022-08-05T04:09:53.376Z,999.2
2022-08-05T04:10:43.034Z,999.2
2022-08-05T04:11:47.754Z,999.2
2022-08-05T04:12:45.055Z,999.2
2022-08-05T04:13:49.481Z,999.2
2022-08-05T04:14:47.274Z,999.2
2022-08-05T04:15:52.968Z,999.2
2022-08-05T04:16:50.054Z,999.1
2022-08-05T04:17:55.959Z,999.1
2022-08-05T04:18:54.083Z,999.1
2022-08-05T04:19:54.416Z,999.2
2022-08-05T04:20:54.054Z,999.2
2022-08-05T04:22:05.460Z,999.2
2022-08-05T04:22:56.053Z,999.1
2022-08-05T04:24:06.145Z,999.2
2022-08-05T04:24:58.096Z,999.2
2022-08-05T04:26:00.197Z,999.1
2022-08-05T04:27:00.084Z,999.1
2022-08-05T04:28:05.556Z,999.1
2022-08-05T04:29:05.548Z,999.1
2022-08-05T04:30:03.689Z,999.1
2022-08-05T04:31:08.339Z,999.1
2022-08-05T04:32:06.054Z,999.1
2022-08-05T04:33:07.037Z,999.1
2022-08-05T04:34:17.758Z,999.1
2022-08-05T04:35:17.486Z,999.1
2022-08-05T04:36:11.414Z,999.1
2022-08-05T04:37:11.097Z,999.1
2022-08-05T04:38:12.356Z,998.8
2022-08-05T04:39:14.116Z,999
2022-08-05T04:40:15.134Z,999.1
2022-08-05T04:41:16.055Z,999.1
2022-08-05T04:42:17.153Z,999.1
2022-08-05T04:43:21.974Z,999.1
2022-08-05T04:44:21.098Z,999.1
2022-08-05T04:45:23.129Z,999.1
2022-08-05T04:46:28.066Z,999.1
2022-08-05T04:47:23.287Z,999.1
2022-08-05T04:48:27.797Z,999.2
2022-08-05T04:49:39.383Z,999.1
2022-08-05T04:50:34.589Z,999.1
2022-08-05T04:51:30.444Z,999.2
2022-08-05T04:52:29.027Z,999.2
2022-08-05T04:53:33.470Z,999.2
2022-08-05T04:54:31.589Z,999.1
2022-08-05T04:56:00.166Z,999.1
2022-08-05T04:56:36.878Z,999.1
2022-08-05T04:57:37.106Z,999.2
2022-08-05T04:58:36.055Z,999.2
2022-08-05T04:59:39.300Z,999.2
2022-08-05T05:00:38.153Z,998.6
2022-08-05T05:02:08.527Z,999
2022-08-05T05:02:41.623Z,999.1
2022-08-05T05:03:41.744Z,999.2
2022-08-05T05:04:43.810Z,999.2
2022-08-05T05:06:36.306Z,999.2
2022-08-05T05:06:45.065Z,999.2
2022-08-05T05:07:45.618Z,999.2
2022-08-05T05:08:46.113Z,999.2
2022-08-05T05:09:47.039Z,999.2
2022-08-05T05:10:56.059Z,999.2
2022-08-05T05:11:54.243Z,999.2
2022-08-05T05:12:50.531Z,999.2
2022-08-05T05:13:51.135Z,999.2
2022-08-05T05:14:52.082Z,999.3
2022-08-05T05:15:54.515Z,999.3
2022-08-05T05:16:54.475Z,999.3
2022-08-05T05:17:55.445Z,998.8
2022-08-05T05:19:16.701Z,999.1
2022-08-05T05:19:57.004Z,999.2
2022-08-05T05:20:58.570Z,999.2
2022-08-05T05:21:59.074Z,999.2
2022-08-05T05:23:02.182Z,999.2
2022-08-05T05:24:02.700Z,999.2
2022-08-05T05:25:16.288Z,999.2
2022-08-05T05:26:03.053Z,999.1
2022-08-05T05:27:04.093Z,999.1
2022-08-05T05:28:05.114Z,999.1
2022-08-05T05:29:10.192Z,999.1
2022-08-05T05:30:07.052Z,999.1
2022-08-05T05:31:08.947Z,999.1
2022-08-05T05:32:12.349Z,999.1
2022-08-05T05:33:16.370Z,999.1
2022-08-05T05:34:11.174Z,999.1
2022-08-05T05:35:12.454Z,999.1
2022-08-05T05:36:14.618Z,999.2
2022-08-05T05:37:15.188Z,999.1
2022-08-05T05:38:22.311Z,999.1
2022-08-05T05:39:19.221Z,999.1
2022-08-05T05:40:19.733Z,999.1
2022-08-05T05:41:20.113Z,999.2
2022-08-05T05:42:21.103Z,999.2
2022-08-05T05:43:28.233Z,999.1
2022-08-05T05:44:36.116Z,999.2
2022-08-05T05:45:24.650Z,999.1
2022-08-05T05:46:25.078Z,999.3
2022-08-05T05:47:30.408Z,999.2
2022-08-05T05:48:27.438Z,999.2
2022-08-05T05:49:28.070Z,999.2
2022-08-05T05:50:29.115Z,999.1
2022-08-05T05:51:30.114Z,999.1
2022-08-05T05:52:34.545Z,999.1
2022-08-05T05:53:32.093Z,999.1
2022-08-05T05:54:35.054Z,999.2
2022-08-05T05:55:51.147Z,999.2
2022-08-05T05:56:36.162Z,999.2
2022-08-05T05:57:42.685Z,999.1
2022-08-05T05:58:38.142Z,999.2
2022-08-05T05:59:40.071Z,999.2
2022-08-05T06:00:40.082Z,999.2
2022-08-05T06:01:41.128Z,999.2
2022-08-05T06:02:42.202Z,999.2
2022-08-05T06:03:54.480Z,999.2
2022-08-05T06:04:44.204Z,999.2
2022-08-05T06:05:45.234Z,998.7
2022-08-05T06:06:46.780Z,999.1
2022-08-05T06:07:57.489Z,999.2
2022-08-05T06:08:49.151Z,999.2
2022-08-05T06:10:00.343Z,999.2
2022-08-05T06:10:52.736Z,999.2
2022-08-05T06:11:59.875Z,999.2
2022-08-05T06:12:53.113Z,999.1
2022-08-05T06:13:55.481Z,999.1
2022-08-05T06:14:55.134Z,999.1
2022-08-05T06:16:27.843Z,999.2
2022-08-05T06:16:57.848Z,999.2
2022-08-05T06:17:58.095Z,999.3
2022-08-05T06:19:00.170Z,999.2
2022-08-05T06:20:00.153Z,999.2
2022-08-05T06:21:01.094Z,999.2
2022-08-05T06:22:02.150Z,999.2
2022-08-05T06:23:04.083Z,999.2
2022-08-05T06:24:04.194Z,999.2
2022-08-05T06:25:24.879Z,999.2
2022-08-05T06:26:13.114Z,999.2
2022-08-05T06:27:17.435Z,999.2
2022-08-05T06:28:09.542Z,999.2
2022-08-05T06:29:24.810Z,998.7
2022-08-05T06:30:16.777Z,999.1
2022-08-05T06:31:17.807Z,999.1
2022-08-05T06:32:13.635Z,999.2
2022-08-05T06:33:15.020Z,999.1
2022-08-05T06:34:15.194Z,999.1
2022-08-05T06:35:21.996Z,999.1
2022-08-05T06:36:17.167Z,999.1
2022-08-05T06:37:18.214Z,999.1
2022-08-05T06:38:35.722Z,999.1
2022-08-05T06:39:21.824Z,999.1
2022-08-05T06:40:27.820Z,999.1
2022-08-05T06:41:23.153Z,999.1
2022-08-05T06:42:24.213Z,999.2
2022-08-05T06:43:51.892Z,999.1
2022-08-05T06:44:26.223Z,999.2
2022-08-05T06:45:44.270Z,999.2
2022-08-05T06:46:29.647Z,999.2
2022-08-05T06:47:29.907Z,999.2
2022-08-05T06:48:47.518Z,999.2
2022-08-05T06:49:59.920Z,999.2
2022-08-05T06:50:32.162Z,999.2
2022-08-05T06:51:33.100Z,999.2
2022-08-05T06:52:36.536Z,999.1
2022-08-05T06:53:39.196Z,999.1
2022-08-05T06:54:36.155Z,999.2
2022-08-05T06:55:37.116Z,999.1
2022-08-05T06:56:38.158Z,999.2
2022-08-05T06:57:58.489Z,999.1
2022-08-05T06:58:40.332Z,999.1
2022-08-05T06:59:42.183Z,999.1
2022-08-05T07:00:42.187Z,999.1
2022-08-05T07:01:43.142Z,999.1
2022-08-05T07:02:44.202Z,999.1
2022-08-05T07:03:45.233Z,999.1
2022-08-05T07:04:46.154Z,999.1
2022-08-05T07:05:47.263Z,999.1
2022-08-05T07:06:50.241Z,999.1
2022-08-05T07:07:49.158Z,999.1
2022-08-05T07:08:51.663Z,999.1
2022-08-05T07:09:55.343Z,999.1
2022-08-05T07:10:54.029Z,999
2022-08-05T07:11:54.195Z,999.1
2022-08-05T07:12:56.274Z,999.1
2022-08-05T07:13:59.660Z,999.1
2022-08-05T07:14:58.321Z,999.1
2022-08-05T07:16:01.377Z,999.1
2022-08-05T07:17:58.003Z,999
2022-08-05T07:18:07.254Z,999
2022-08-05T07:19:02.302Z,999
2022-08-05T07:21:05.618Z,999.1
2022-08-05T07:22:07.195Z,999
2022-08-05T07:23:08.222Z,999.1
2022-08-05T07:24:11.353Z,999
2022-08-05T07:25:24.272Z,999
2022-08-05T07:26:11.282Z,999
2022-08-05T07:27:12.634Z,999
2022-08-05T07:28:17.323Z,999
2022-08-05T07:29:15.174Z,999
2022-08-05T07:30:22.620Z,999
2022-08-05T07:31:17.234Z,999
2022-08-05T07:32:18.214Z,999
2022-08-05T07:33:20.261Z,999
2022-08-05T07:34:25.225Z,999
2022-08-05T07:35:56.360Z,999
2022-08-05T07:36:23.322Z,999
2022-08-05T07:37:24.506Z,999
2022-08-05T07:38:26.599Z,999
2022-08-05T07:40:04.948Z,999.1
2022-08-05T07:40:32.765Z,999
2022-08-05T07:42:07.583Z,999
2022-08-05T07:42:31.659Z,999
2022-08-05T07:43:30.255Z,999
2022-08-05T07:44:31.134Z,999
2022-08-05T07:45:56.847Z,999
2022-08-05T07:46:33.726Z,999.1
2022-08-05T07:47:42.091Z,999.1
2022-08-05T07:48:35.234Z,999
2022-08-05T07:49:43.330Z,999.1
2022-08-05T07:50:37.237Z,999
2022-08-05T07:51:40.440Z,999
2022-08-05T07:52:39.194Z,999
2022-08-05T07:53:50.178Z,998.8
2022-08-05T07:54:47.727Z,998.9
2022-08-05T07:55:44.121Z,999
2022-08-05T07:57:01.125Z,999
2022-08-05T07:57:51.212Z,999
2022-08-05T07:58:55.140Z,999
2022-08-05T07:59:46.880Z,998.6
2022-08-05T08:00:47.199Z,998.9
2022-08-05T08:01:51.644Z,999
2022-08-05T08:03:14.496Z,999
2022-08-05T08:03:51.285Z,999
2022-08-05T08:04:51.262Z,999
2022-08-05T08:05:52.296Z,999
2022-08-05T08:06:53.194Z,999
2022-08-05T08:07:59.394Z,999
2022-08-05T08:08:55.255Z,999
2022-08-05T08:09:56.679Z,999.1
2022-08-05T08:10:58.740Z,999
2022-08-05T08:12:06.342Z,999
2022-08-05T08:13:02.191Z,999
2022-08-05T08:14:03.254Z,999
2022-08-05T08:15:04.683Z,999
2022-08-05T08:16:36.090Z,998.9
2022-08-05T08:17:07.214Z,998.9
2022-08-05T08:18:13.732Z,998.9
2022-08-05T08:19:09.223Z,998.9
2022-08-05T08:20:23.130Z,998.9
2022-08-05T08:21:15.919Z,998.9
2022-08-05T08:22:15.829Z,998.9
2022-08-05T08:24:00.684Z,998.9
2022-08-05T08:24:15.234Z,999
2022-08-05T08:25:17.909Z,998.9
2022-08-05T08:26:27.185Z,999
2022-08-05T08:27:19.234Z,998.9
2022-08-05T08:28:35.918Z,998.9
2022-08-05T08:29:22.118Z,998.9
2022-08-05T08:30:27.723Z,998.9
2022-08-05T08:31:23.214Z,998.9
2022-08-05T08:32:24.520Z,998.9
2022-08-05T08:33:25.295Z,998.9
2022-08-05T08:34:30.072Z,998.9
2022-08-05T08:35:27.242Z,998.9
2022-08-05T08:36:37.376Z,998.9
2022-08-05T08:37:29.222Z,999
2022-08-05T08:38:32.427Z,999
2022-08-05T08:39:31.267Z,998.9
2022-08-05T08:40:32.294Z,999
2022-08-05T08:41:50.558Z,998.9
2022-08-05T08:42:50.322Z,998.9
2022-08-05T08:45:21.905Z,998.9
2022-08-05T08:45:21.965Z,998.9
2022-08-05T08:45:38.333Z,998.9
2022-08-05T08:46:39.255Z,998.9
2022-08-05T08:47:47.904Z,998.9
2022-08-05T08:48:41.542Z,998.9
2022-08-05T08:50:07.975Z,998.9
2022-08-05T08:51:04.267Z,998.9
2022-08-05T08:52:04.478Z,998.9
2022-08-05T08:52:47.297Z,998.9
2022-08-05T08:53:47.153Z,998.9
2022-08-05T08:54:48.233Z,998.9
2022-08-05T08:56:02.323Z,998.9
2022-08-05T08:56:51.275Z,998.9
2022-08-05T08:57:58.202Z,998.9
2022-08-05T08:58:53.227Z,998.9
2022-08-05T08:59:56.057Z,998.9
2022-08-05T09:00:55.244Z,998.9
2022-08-05T09:01:57.163Z,998.9
2022-08-05T09:02:57.335Z,998.9
2022-08-05T09:03:59.276Z,998.9
2022-08-05T09:05:16.226Z,998.9
2022-08-05T09:06:08.247Z,998.9
2022-08-05T09:07:02.234Z,998.9
2022-08-05T09:08:03.295Z,998.9
2022-08-05T09:09:04.904Z,998.9
2022-08-05T09:10:06.269Z,998.9
2022-08-05T09:11:08.233Z,998.9
2022-08-05T09:12:19.926Z,998.8
2022-08-05T09:13:10.190Z,998.8
2022-08-05T09:14:54.920Z,998.8
2022-08-05T09:15:12.793Z,998.8
2022-08-05T09:16:14.590Z,998.8
2022-08-05T09:17:16.223Z,998.8
2022-08-05T09:18:16.313Z,998.8
2022-08-05T09:19:17.455Z,998.8
2022-08-05T09:20:20.980Z,998.8
2022-08-05T09:21:20.588Z,998.8
2022-08-05T09:22:23.553Z,998.8
2022-08-05T09:23:22.222Z,998.8
2022-08-05T09:24:24.167Z,998.8
2022-08-05T09:26:00.610Z,998.8
2022-08-05T09:26:25.334Z,998.8
2022-08-05T09:28:03.662Z,998.8
2022-08-05T09:28:31.758Z,998.8
2022-08-05T09:29:30.834Z,998.8
2022-08-05T09:30:29.274Z,998.8
2022-08-05T09:32:39.442Z,998.8
2022-08-05T09:32:40.451Z,998.9
2022-08-05T09:33:35.055Z,998.9
2022-08-05T09:34:33.282Z,998.9
2022-08-05T09:35:34.274Z,998.8
2022-08-05T09:36:35.354Z,998.9
2022-08-05T09:38:11.854Z,998.8
2022-08-05T09:38:38.317Z,998.8
2022-08-05T09:39:42.062Z,998.8
2022-08-05T09:40:40.234Z,998.8
2022-08-05T09:41:41.354Z,998.8
2022-08-05T09:42:42.243Z,998.8
2022-08-05T09:43:43.293Z,998.7
2022-08-05T09:44:44.314Z,998.8
2022-08-05T09:46:05.691Z,998.7
2022-08-05T09:46:51.976Z,998.7
2022-08-05T09:47:55.720Z,998.7
2022-08-05T09:48:55.096Z,998.7
2022-08-05T09:49:54.612Z,998.7
2022-08-05T09:50:50.213Z,998.7
2022-08-05T09:51:51.328Z,998.7
2022-08-05T09:52:52.876Z,998.7
2022-08-05T09:53:55.507Z,998.8
2022-08-05T09:54:54.277Z,998.8
2022-08-05T09:55:59.177Z,998.8
2022-08-05T09:56:57.452Z,998.7
2022-08-05T09:57:58.777Z,998.8
2022-08-05T09:58:59.275Z,998.8
2022-08-05T10:00:02.704Z,998.8
2022-08-05T10:01:01.285Z,998.8
2022-08-05T10:02:02.373Z,998.8
2022-08-05T10:03:03.359Z,998.8
2022-08-05T10:04:04.398Z,998.8
2022-08-05T10:05:05.299Z,998.8
2022-08-05T10:06:07.719Z,998.8
2022-08-05T10:07:20.674Z,998.8
2022-08-05T10:08:11.570Z,998.8
2022-08-05T10:09:09.674Z,998.7
2022-08-05T10:10:15.432Z,998.7
2022-08-05T10:11:12.814Z,998.8
2022-08-05T10:12:19.067Z,998.7
2022-08-05T10:13:15.295Z,998.7
2022-08-05T10:14:16.333Z,998.7
2022-08-05T10:15:20.127Z,998.7
2022-08-05T10:16:18.319Z,998.7
2022-08-05T10:17:37.058Z,998.7
2022-08-05T10:18:20.431Z,998.7
2022-08-05T10:19:23.421Z,998.7
2022-08-05T10:20:22.282Z,998.7
2022-08-05T10:21:23.294Z,998.7
2022-08-05T10:22:29.604Z,998.7
2022-08-05T10:23:34.838Z,998.7
2022-08-05T10:24:27.435Z,998.6
2022-08-05T10:25:29.344Z,998.6
2022-08-05T10:26:31.824Z,998.6
2022-08-05T10:28:09.179Z,998.6
2022-08-05T10:28:32.486Z,998.6
2022-08-05T10:30:07.297Z,998.6
2022-08-05T10:30:49.552Z,998.6
2022-08-05T10:32:49.848Z,998.6
2022-08-05T10:32:51.395Z,998.5
2022-08-05T10:33:39.334Z,998.6
2022-08-05T10:34:40.805Z,998.5
2022-08-05T10:35:44.043Z,998.6
2022-08-05T10:36:42.333Z,998.6
2022-08-05T10:37:45.158Z,998.6
2022-08-05T10:38:45.144Z,998.6
2022-08-05T10:39:58.716Z,998.6
2022-08-05T10:40:47.343Z,998.6
2022-08-05T10:41:48.355Z,998.5
2022-08-05T10:42:49.294Z,998.5
2022-08-05T10:43:50.313Z,998.5
2022-08-05T10:44:51.265Z,998.3
2022-08-05T10:45:52.355Z,998.4
2022-08-05T10:46:53.914Z,998.4
2022-08-05T10:48:04.895Z,998.4
2022-08-05T10:48:58.215Z,998.5
2022-08-05T10:50:20.991Z,998.4
2022-08-05T10:50:57.383Z,998.5
2022-08-05T10:52:00.040Z,998.5
2022-08-05T10:52:59.442Z,998.4
2022-08-05T10:54:00.782Z,998.4
2022-08-05T10:55:01.302Z,998.4
2022-08-05T10:56:03.968Z,998.4
2022-08-05T10:57:03.314Z,998.5
2022-08-05T10:58:04.333Z,998.5
2022-08-05T10:59:07.399Z,998.4
2022-08-05T11:00:08.293Z,998.4
2022-08-05T11:01:08.315Z,998.4
2022-08-05T11:02:14.374Z,998.4
2022-08-05T11:03:24.076Z,998.4
2022-08-05T11:04:11.394Z,998.4
2022-08-05T11:05:13.484Z,998.5
2022-08-05T11:06:14.719Z,998.4
2022-08-05T11:07:15.382Z,998.4
2022-08-05T11:08:33.962Z,998.4
2022-08-05T11:09:17.462Z,998.4
2022-08-05T11:10:19.355Z,998.4
2022-08-05T11:11:20.374Z,998.4
2022-08-05T11:12:21.639Z,998.4
2022-08-05T11:13:23.362Z,998.3
2022-08-05T11:14:37.265Z,998.3
2022-08-05T11:15:58.918Z,998.4
2022-08-05T11:16:33.674Z,998.4
2022-08-05T11:17:58.610Z,998.4
2022-08-05T11:18:29.876Z,998.4
2022-08-05T11:20:11.727Z,998.4
2022-08-05T11:20:30.374Z,998.4
2022-08-05T11:21:31.362Z,998.4
2022-08-05T11:22:33.400Z,998.4
2022-08-05T11:24:03.744Z,998.3
2022-08-05T11:24:36.873Z,998.3
2022-08-05T11:26:03.784Z,998.3
2022-08-05T11:26:39.354Z,998.3
2022-08-05T11:27:50.196Z,998.2
2022-08-05T11:28:41.355Z,998.3
2022-08-05T11:29:42.319Z,998.3
2022-08-05T11:30:43.374Z,998.3
2022-08-05T11:31:54.904Z,998.3
2022-08-05T11:32:47.875Z,998.3
2022-08-05T11:33:48.042Z,998.4
2022-08-05T11:34:52.270Z,998.4
2022-08-05T11:36:04.563Z,998.4
2022-08-05T11:36:52.573Z,998.4
2022-08-05T11:38:27.504Z,998.4
2022-08-05T11:38:54.748Z,998.4
2022-08-05T11:40:00.936Z,998.4
2022-08-05T11:41:00.774Z,998.4
2022-08-05T11:42:02.176Z,998.3
2022-08-05T11:42:58.444Z,998.4
2022-08-05T11:44:05.286Z,998.4
2022-08-05T11:45:01.407Z,998.3
2022-08-05T11:46:15.791Z,998.4
2022-08-05T11:47:10.069Z,998.4
2022-08-05T11:48:04.455Z,998.3
2022-08-05T11:49:07.958Z,998.4
2022-08-05T11:50:08.446Z,998.4
2022-08-05T11:51:10.870Z,998.3
2022-08-05T11:52:12.144Z,998.3
2022-08-05T11:53:12.414Z,998.4
2022-08-05T11:54:13.868Z,998.4
2022-08-05T11:55:14.374Z,998.4
2022-08-05T11:56:15.395Z,998.3
2022-08-05T11:57:24.604Z,998.3
2022-08-05T11:58:17.655Z,998.3
2022-08-05T11:59:21.267Z,998.3
2022-08-05T12:00:19.502Z,998.3
2022-08-05T12:01:21.335Z,998.3
2022-08-05T12:02:24.360Z,998.3
2022-08-05T12:03:24.121Z,998.3
2022-08-05T12:04:24.335Z,998.3
2022-08-05T12:05:28.652Z,998.3
2022-08-05T12:06:26.399Z,998.3
2022-08-05T12:08:03.864Z,998.3
2022-08-05T12:08:28.454Z,998.3
2022-08-05T12:09:38.715Z,998.3
2022-08-05T12:10:38.281Z,998.3
2022-08-05T12:11:40.001Z,998.3
2022-08-05T12:12:32.293Z,998.3
2022-08-05T12:13:48.210Z,998.3
2022-08-05T12:14:34.355Z,998.3
2022-08-05T12:15:35.998Z,998.2
2022-08-05T12:16:38.326Z,998.2
2022-08-05T12:17:42.236Z,998.1
2022-08-05T12:18:38.762Z,998.2
2022-08-05T12:20:16.555Z,998.2
2022-08-05T12:20:40.610Z,998.2
2022-08-05T12:21:41.415Z,998.2
2022-08-05T12:22:43.513Z,998.2
2022-08-05T12:23:45.442Z,998.2
2022-08-05T12:24:49.506Z,998.2
2022-08-05T12:25:47.394Z,997.8
2022-08-05T12:26:48.342Z,998.1
2022-08-05T12:27:52.804Z,998.1
2022-08-05T12:28:51.435Z,998.1
2022-08-05T12:29:53.995Z,998.2
2022-08-05T12:30:53.386Z,998.2
2022-08-05T12:31:54.713Z,998.2
2022-08-05T12:32:56.318Z,998.1
2022-08-05T12:33:56.456Z,998.2
2022-08-05T12:34:57.439Z,998.2
2022-08-05T12:35:58.447Z,998.1
2022-08-05T12:36:59.382Z,998.1
2022-08-05T12:38:00.464Z,998.2
2022-08-05T12:39:01.379Z,998.2
2022-08-05T12:40:03.433Z,998.2
2022-08-05T12:41:03.434Z,998.2
2022-08-05T12:42:04.425Z,998.1
2022-08-05T12:43:06.413Z,998.1
2022-08-05T12:44:11.525Z,998.1
2022-08-05T12:45:08.685Z,998.1
2022-08-05T12:46:12.444Z,998
2022-08-05T12:47:12.649Z,998
2022-08-05T12:48:17.853Z,998
2022-08-05T12:49:14.175Z,998
2022-08-05T12:50:14.454Z,998
2022-08-05T12:51:21.958Z,998
2022-08-05T12:52:18.993Z,998.1
2022-08-05T12:53:17.502Z,998
2022-08-05T12:54:23.593Z,998
2022-08-05T12:55:21.948Z,998
2022-08-05T12:56:24.602Z,998
2022-08-05T12:57:23.377Z,998
2022-08-05T12:58:39.235Z,998
2022-08-05T12:59:27.695Z,998
2022-08-05T13:01:58.721Z,998
2022-08-05T13:01:59.627Z,998
2022-08-05T13:02:27.418Z,998
2022-08-05T13:03:32.103Z,998
2022-08-05T13:04:28.411Z,998
2022-08-05T13:05:33.973Z,998
2022-08-05T13:06:30.385Z,998
2022-08-05T13:07:56.396Z,998
2022-08-05T13:08:32.743Z,997.6
2022-08-05T13:09:33.399Z,997.9
2022-08-05T13:10:34.388Z,997.9
2022-08-05T13:11:35.418Z,997.9
2022-08-05T13:12:36.434Z,997.9